sensor_id;sensor_type;location;lat;lon;timestamp;pressure;altitude;pressure_sealevel;temperature;humidity
44663;BME280;30381;52.754;18.258;2023-02-04T00:00:20;100420.27;;;-1.55;100.00
44663;BME280;30381;52.754;18.258;2023-02-04T00:03:07;100440.27;;;-1.56;100.00
44663;BME280;30381;52.754;18.258;2023-02-04T00:05:33;100450.96;;;-1.57;100.00
44663;BME280;30381;52.754;18.258;2023-02-04T00:07:59;100455.43;;;-1.58;100.00
44663;BME280;30381;52.754;18.258;2023-02-04T00:10:25;100473.29;;;-1.60;100.00
44663;BME280;30381;52.754;18.258;2023-02-04T00:12:52;100478.63;;;-1.61;100.00
44663;BME280;30381;52.754;18.258;2023-02-04T00:15:18;100499.80;;;-1.63;100.00
44663;BME280;30381;52.754;18.258;2023-02-04T00:17:44;100500.65;;;-1.64;100.00
44663;BME280;30381;52.754;18.258;2023-02-04T00:20:10;100523.35;;;-1.66;100.00
44663;BME280;30381;52.754;18.258;2023-02-04T00:22:37;100539.31;;;-1.69;100.00
44663;BME280;30381;52.754;18.258;2023-02-04T00:25:03;100562.04;;;-1.71;100.00
44663;BME280;30381;52.754;18.258;2023-02-04T00:27:29;100567.64;;;-1.74;100.00
44663;BME280;30381;52.754;18.258;2023-02-04T00:29:55;100580.44;;;-1.80;100.00
44663;BME280;30381;52.754;18.258;2023-02-04T00:32:22;100593.10;;;-1.85;100.00
44663;BME280;30381;52.754;18.258;2023-02-04T00:34:48;100605.50;;;-1.90;100.00
44663;BME280;30381;52.754;18.258;2023-02-04T00:37:15;100613.70;;;-1.92;100.00
44663;BME280;30381;52.754;18.258;2023-02-04T00:39:41;100614.08;;;-1.96;100.00
44663;BME280;30381;52.754;18.258;2023-02-04T00:42:08;100629.33;;;-1.98;100.00
44663;BME280;30381;52.754;18.258;2023-02-04T00:44:35;100646.67;;;-2.00;100.00
44663;BME280;30381;52.754;18.258;2023-02-04T00:47:02;100653.04;;;-2.02;100.00
44663;BME280;30381;52.754;18.258;2023-02-04T00:49:28;100669.67;;;-2.03;100.00
44663;BME280;30381;52.754;18.258;2023-02-04T00:51:55;100668.00;;;-2.03;100.00
44663;BME280;30381;52.754;18.258;2023-02-04T00:54:21;100675.77;;;-2.05;100.00
44663;BME280;30381;52.754;18.258;2023-02-04T00:56:47;100684.48;;;-2.06;100.00
44663;BME280;30381;52.754;18.258;2023-02-04T00:59:13;100693.80;;;-2.07;100.00
44663;BME280;30381;52.754;18.258;2023-02-04T01:01:39;100704.46;;;-2.08;100.00
44663;BME280;30381;52.754;18.258;2023-02-04T01:04:20;100712.71;;;-2.09;100.00
44663;BME280;30381;52.754;18.258;2023-02-04T01:06:46;100718.04;;;-2.09;100.00
44663;BME280;30381;52.754;18.258;2023-02-04T01:09:12;100733.25;;;-2.09;100.00
44663;BME280;30381;52.754;18.258;2023-02-04T01:11:38;100751.07;;;-2.09;100.00
44663;BME280;30381;52.754;18.258;2023-02-04T01:14:04;100764.96;;;-2.10;100.00
44663;BME280;30381;52.754;18.258;2023-02-04T01:16:30;100771.44;;;-2.11;100.00
44663;BME280;30381;52.754;18.258;2023-02-04T01:18:57;100789.30;;;-2.12;100.00
44663;BME280;30381;52.754;18.258;2023-02-04T01:21:28;100801.00;;;-2.12;100.00
44663;BME280;30381;52.754;18.258;2023-02-04T01:23:57;100813.91;;;-2.12;100.00
44663;BME280;30381;52.754;18.258;2023-02-04T01:26:25;100828.65;;;-2.13;100.00
44663;BME280;30381;52.754;18.258;2023-02-04T01:28:51;100826.91;;;-2.13;100.00
44663;BME280;30381;52.754;18.258;2023-02-04T01:31:18;100835.63;;;-2.14;100.00
44663;BME280;30381;52.754;18.258;2023-02-04T01:33:44;100848.19;;;-2.14;100.00
44663;BME280;30381;52.754;18.258;2023-02-04T01:36:10;100868.73;;;-2.14;100.00
44663;BME280;30381;52.754;18.258;2023-02-04T01:38:36;100872.88;;;-2.14;100.00
44663;BME280;30381;52.754;18.258;2023-02-04T01:41:03;100873.11;;;-2.16;100.00
44663;BME280;30381;52.754;18.258;2023-02-04T01:43:30;100886.48;;;-2.20;100.00
44663;BME280;30381;52.754;18.258;2023-02-04T01:45:57;100891.73;;;-2.23;100.00
44663;BME280;30381;52.754;18.258;2023-02-04T01:48:24;100904.61;;;-2.26;100.00
44663;BME280;30381;52.754;18.258;2023-02-04T01:50:52;100914.40;;;-2.29;100.00
44663;BME280;30381;52.754;18.258;2023-02-04T01:53:24;100931.98;;;-2.30;100.00
44663;BME280;30381;52.754;18.258;2023-02-04T01:55:51;100928.66;;;-2.30;100.00
44663;BME280;30381;52.754;18.258;2023-02-04T01:58:18;100943.73;;;-2.33;100.00
44663;BME280;30381;52.754;18.258;2023-02-04T02:00:44;100948.62;;;-2.36;100.00
44663;BME280;30381;52.754;18.258;2023-02-04T02:03:11;100965.43;;;-2.40;100.00
44663;BME280;30381;52.754;18.258;2023-02-04T02:05:44;100983.25;;;-2.42;100.00
44663;BME280;30381;52.754;18.258;2023-02-04T02:08:12;100991.54;;;-2.43;100.00
44663;BME280;30381;52.754;18.258;2023-02-04T02:10:41;100997.03;;;-2.43;100.00
44663;BME280;30381;52.754;18.258;2023-02-04T02:13:10;101015.15;;;-2.41;100.00
44663;BME280;30381;52.754;18.258;2023-02-04T02:15:38;101015.36;;;-2.38;100.00
44663;BME280;30381;52.754;18.258;2023-02-04T02:18:06;101024.34;;;-2.35;100.00
44663;BME280;30381;52.754;18.258;2023-02-04T02:20:32;101038.64;;;-2.35;100.00
44663;BME280;30381;52.754;18.258;2023-02-04T02:25:44;101057.89;;;-2.41;100.00
44663;BME280;30381;52.754;18.258;2023-02-04T02:28:14;101080.89;;;-2.45;100.00
44663;BME280;30381;52.754;18.258;2023-02-04T02:30:41;101097.23;;;-2.46;100.00
44663;BME280;30381;52.754;18.258;2023-02-04T02:33:15;101103.80;;;-2.47;100.00
44663;BME280;30381;52.754;18.258;2023-02-04T02:35:43;101109.80;;;-2.49;100.00
44663;BME280;30381;52.754;18.258;2023-02-04T02:38:16;101124.27;;;-2.50;100.00
44663;BME280;30381;52.754;18.258;2023-02-04T02:40:44;101123.65;;;-2.51;100.00
44663;BME280;30381;52.754;18.258;2023-02-04T02:43:16;101140.73;;;-2.53;100.00
44663;BME280;30381;52.754;18.258;2023-02-04T02:45:43;101154.15;;;-2.55;100.00
44663;BME280;30381;52.754;18.258;2023-02-04T02:48:10;101163.08;;;-2.58;100.00
44663;BME280;30381;52.754;18.258;2023-02-04T02:50:37;101171.94;;;-2.60;100.00
44663;BME280;30381;52.754;18.258;2023-02-04T02:53:08;101184.77;;;-2.64;100.00
44663;BME280;30381;52.754;18.258;2023-02-04T02:55:35;101189.36;;;-2.68;100.00
44663;BME280;30381;52.754;18.258;2023-02-04T02:58:01;101204.05;;;-2.72;100.00
44663;BME280;30381;52.754;18.258;2023-02-04T03:00:29;101212.75;;;-2.76;100.00
44663;BME280;30381;52.754;18.258;2023-02-04T03:03:00;101224.17;;;-2.80;100.00
44663;BME280;30381;52.754;18.258;2023-02-04T03:05:30;101241.55;;;-2.83;100.00
44663;BME280;30381;52.754;18.258;2023-02-04T03:07:58;101246.74;;;-2.85;100.00
44663;BME280;30381;52.754;18.258;2023-02-04T03:10:25;101254.69;;;-2.88;100.00
44663;BME280;30381;52.754;18.258;2023-02-04T03:12:51;101253.38;;;-2.91;100.00
44663;BME280;30381;52.754;18.258;2023-02-04T03:15:19;101276.36;;;-2.91;100.00
44663;BME280;30381;52.754;18.258;2023-02-04T03:17:45;101282.11;;;-2.93;100.00
44663;BME280;30381;52.754;18.258;2023-02-04T03:20:13;101290.55;;;-2.92;100.00
44663;BME280;30381;52.754;18.258;2023-02-04T03:22:40;101301.36;;;-2.93;100.00
44663;BME280;30381;52.754;18.258;2023-02-04T03:25:07;101318.38;;;-2.95;100.00
44663;BME280;30381;52.754;18.258;2023-02-04T03:27:33;101321.08;;;-2.98;100.00
44663;BME280;30381;52.754;18.258;2023-02-04T03:30:00;101335.27;;;-3.01;100.00
44663;BME280;30381;52.754;18.258;2023-02-04T03:32:26;101339.34;;;-3.04;100.00
44663;BME280;30381;52.754;18.258;2023-02-04T03:34:52;101352.80;;;-3.07;100.00
44663;BME280;30381;52.754;18.258;2023-02-04T03:37:19;101357.21;;;-3.09;100.00
44663;BME280;30381;52.754;18.258;2023-02-04T03:39:45;101368.02;;;-3.11;100.00
44663;BME280;30381;52.754;18.258;2023-02-04T03:42:11;101374.41;;;-3.14;100.00
44663;BME280;30381;52.754;18.258;2023-02-04T03:44:39;101379.80;;;-3.15;100.00
44663;BME280;30381;52.754;18.258;2023-02-04T03:47:05;101388.27;;;-3.17;100.00
44663;BME280;30381;52.754;18.258;2023-02-04T03:49:31;101399.48;;;-3.20;100.00
44663;BME280;30381;52.754;18.258;2023-02-04T03:51:57;101406.69;;;-3.22;100.00
44663;BME280;30381;52.754;18.258;2023-02-04T03:54:24;101419.25;;;-3.24;100.00
44663;BME280;30381;52.754;18.258;2023-02-04T03:56:50;101426.67;;;-3.27;100.00
44663;BME280;30381;52.754;18.258;2023-02-04T03:59:16;101442.15;;;-3.28;100.00
44663;BME280;30381;52.754;18.258;2023-02-04T04:01:42;101450.11;;;-3.31;100.00
44663;BME280;30381;52.754;18.258;2023-02-04T04:04:17;101457.75;;;-3.29;100.00
44663;BME280;30381;52.754;18.258;2023-02-04T04:06:43;101457.14;;;-3.30;100.00
44663;BME280;30381;52.754;18.258;2023-02-04T04:09:09;101466.79;;;-3.30;100.00
44663;BME280;30381;52.754;18.258;2023-02-04T04:11:36;101473.86;;;-3.30;100.00
44663;BME280;30381;52.754;18.258;2023-02-04T04:14:02;101478.42;;;-3.28;100.00
44663;BME280;30381;52.754;18.258;2023-02-04T04:16:28;101495.66;;;-3.27;100.00
44663;BME280;30381;52.754;18.258;2023-02-04T04:18:54;101497.38;;;-3.27;100.00
44663;BME280;30381;52.754;18.258;2023-02-04T04:21:21;101507.51;;;-3.25;100.00
44663;BME280;30381;52.754;18.258;2023-02-04T04:23:47;101513.39;;;-3.26;100.00
44663;BME280;30381;52.754;18.258;2023-02-04T04:26:13;101528.09;;;-3.29;100.00
44663;BME280;30381;52.754;18.258;2023-02-04T04:28:39;101535.48;;;-3.33;100.00
44663;BME280;30381;52.754;18.258;2023-02-04T04:31:06;101549.10;;;-3.36;100.00
44663;BME280;30381;52.754;18.258;2023-02-04T04:33:32;101557.89;;;-3.38;100.00
44663;BME280;30381;52.754;18.258;2023-02-04T04:35:58;101569.32;;;-3.39;100.00
44663;BME280;30381;52.754;18.258;2023-02-04T04:38:25;101578.90;;;-3.40;100.00
44663;BME280;30381;52.754;18.258;2023-02-04T04:40:52;101590.27;;;-3.41;100.00
44663;BME280;30381;52.754;18.258;2023-02-04T04:43:20;101594.53;;;-3.44;100.00
44663;BME280;30381;52.754;18.258;2023-02-04T04:45:47;101595.26;;;-3.46;100.00
44663;BME280;30381;52.754;18.258;2023-02-04T04:48:13;101600.42;;;-3.49;100.00
44663;BME280;30381;52.754;18.258;2023-02-04T04:50:39;101604.66;;;-3.52;100.00
44663;BME280;30381;52.754;18.258;2023-02-04T04:53:06;101612.89;;;-3.53;100.00
44663;BME280;30381;52.754;18.258;2023-02-04T04:55:38;101622.23;;;-3.55;100.00
44663;BME280;30381;52.754;18.258;2023-02-04T04:58:05;101624.74;;;-3.61;100.00
44663;BME280;30381;52.754;18.258;2023-02-04T05:00:33;101634.77;;;-3.65;100.00
44663;BME280;30381;52.754;18.258;2023-02-04T05:02:59;101639.62;;;-3.68;100.00
44663;BME280;30381;52.754;18.258;2023-02-04T05:05:26;101645.01;;;-3.71;100.00
44663;BME280;30381;52.754;18.258;2023-02-04T05:07:57;101646.21;;;-3.75;100.00
44663;BME280;30381;52.754;18.258;2023-02-04T05:10:31;101654.20;;;-3.81;100.00
44663;BME280;30381;52.754;18.258;2023-02-04T05:12:57;101669.38;;;-3.85;100.00
44663;BME280;30381;52.754;18.258;2023-02-04T05:15:23;101669.45;;;-3.93;100.00
44663;BME280;30381;52.754;18.258;2023-02-04T05:17:53;101663.61;;;-4.02;100.00
44663;BME280;30381;52.754;18.258;2023-02-04T05:20:20;101656.11;;;-4.10;100.00
44663;BME280;30381;52.754;18.258;2023-02-04T05:22:46;101649.86;;;-4.16;100.00
44663;BME280;30381;52.754;18.258;2023-02-04T05:25:12;101652.25;;;-4.19;100.00
44663;BME280;30381;52.754;18.258;2023-02-04T05:27:44;101658.31;;;-4.21;100.00
44663;BME280;30381;52.754;18.258;2023-02-04T05:30:12;101657.79;;;-4.20;100.00
44663;BME280;30381;52.754;18.258;2023-02-04T05:32:38;101676.27;;;-4.18;100.00
44663;BME280;30381;52.754;18.258;2023-02-04T05:35:05;101702.81;;;-4.13;100.00
44663;BME280;30381;52.754;18.258;2023-02-04T05:37:31;101705.55;;;-4.07;100.00
44663;BME280;30381;52.754;18.258;2023-02-04T05:39:57;101713.88;;;-4.01;100.00
44663;BME280;30381;52.754;18.258;2023-02-04T05:42:24;101717.48;;;-3.95;100.00
44663;BME280;30381;52.754;18.258;2023-02-04T05:44:50;101722.80;;;-3.91;100.00
44663;BME280;30381;52.754;18.258;2023-02-04T05:47:16;101724.71;;;-3.86;100.00
44663;BME280;30381;52.754;18.258;2023-02-04T05:49:45;101727.69;;;-3.81;100.00
44663;BME280;30381;52.754;18.258;2023-02-04T05:52:12;101738.89;;;-3.75;100.00
44663;BME280;30381;52.754;18.258;2023-02-04T05:54:38;101747.80;;;-3.70;100.00
44663;BME280;30381;52.754;18.258;2023-02-04T05:57:04;101752.04;;;-3.63;100.00
44663;BME280;30381;52.754;18.258;2023-02-04T05:59:30;101759.23;;;-3.56;100.00
44663;BME280;30381;52.754;18.258;2023-02-04T06:01:57;101764.42;;;-3.50;100.00
44663;BME280;30381;52.754;18.258;2023-02-04T06:04:23;101769.29;;;-3.44;100.00
44663;BME280;30381;52.754;18.258;2023-02-04T06:06:49;101776.33;;;-3.39;100.00
44663;BME280;30381;52.754;18.258;2023-02-04T06:09:15;101777.64;;;-3.36;100.00
44663;BME280;30381;52.754;18.258;2023-02-04T06:11:42;101780.22;;;-3.33;100.00
44663;BME280;30381;52.754;18.258;2023-02-04T06:14:08;101789.64;;;-3.29;100.00
44663;BME280;30381;52.754;18.258;2023-02-04T06:16:35;101790.09;;;-3.26;100.00
44663;BME280;30381;52.754;18.258;2023-02-04T06:19:02;101789.69;;;-3.23;100.00
44663;BME280;30381;52.754;18.258;2023-02-04T06:21:28;101790.39;;;-3.21;100.00
44663;BME280;30381;52.754;18.258;2023-02-04T06:23:54;101795.86;;;-3.19;100.00
44663;BME280;30381;52.754;18.258;2023-02-04T06:26:22;101806.09;;;-3.17;100.00
44663;BME280;30381;52.754;18.258;2023-02-04T06:28:48;101810.45;;;-3.14;100.00
44663;BME280;30381;52.754;18.258;2023-02-04T06:31:15;101815.55;;;-3.09;100.00
44663;BME280;30381;52.754;18.258;2023-02-04T06:33:46;101820.06;;;-3.04;100.00
44663;BME280;30381;52.754;18.258;2023-02-04T06:36:36;101821.17;;;-2.97;100.00
44663;BME280;30381;52.754;18.258;2023-02-04T06:39:03;101833.55;;;-2.95;100.00
44663;BME280;30381;52.754;18.258;2023-02-04T06:41:32;101839.61;;;-2.96;100.00
44663;BME280;30381;52.754;18.258;2023-02-04T06:43:58;101834.44;;;-2.95;100.00
44663;BME280;30381;52.754;18.258;2023-02-04T06:46:25;101841.65;;;-2.93;100.00
44663;BME280;30381;52.754;18.258;2023-02-04T06:48:51;101849.41;;;-2.93;100.00
44663;BME280;30381;52.754;18.258;2023-02-04T06:51:17;101849.87;;;-2.94;100.00
44663;BME280;30381;52.754;18.258;2023-02-04T06:53:45;101853.20;;;-2.96;100.00
44663;BME280;30381;52.754;18.258;2023-02-04T06:56:11;101859.65;;;-2.99;100.00
44663;BME280;30381;52.754;18.258;2023-02-04T06:58:38;101865.35;;;-3.00;100.00
44663;BME280;30381;52.754;18.258;2023-02-04T07:01:05;101870.27;;;-2.98;100.00
44663;BME280;30381;52.754;18.258;2023-02-04T07:03:31;101872.95;;;-2.92;100.00
44663;BME280;30381;52.754;18.258;2023-02-04T07:05:58;101873.59;;;-2.86;100.00
44663;BME280;30381;52.754;18.258;2023-02-04T07:08:27;101882.52;;;-2.79;100.00
44663;BME280;30381;52.754;18.258;2023-02-04T07:11:01;101893.66;;;-2.70;100.00
44663;BME280;30381;52.754;18.258;2023-02-04T07:16:54;101902.06;;;-2.51;100.00
44663;BME280;30381;52.754;18.258;2023-02-04T07:19:25;101914.68;;;-2.43;100.00
44663;BME280;30381;52.754;18.258;2023-02-04T07:21:52;101922.95;;;-2.36;100.00
44663;BME280;30381;52.754;18.258;2023-02-04T07:24:24;101922.48;;;-2.28;100.00
44663;BME280;30381;52.754;18.258;2023-02-04T07:26:51;101924.36;;;-2.21;100.00
44663;BME280;30381;52.754;18.258;2023-02-04T07:29:38;101926.23;;;-2.13;100.00
44663;BME280;30381;52.754;18.258;2023-02-04T07:32:25;101935.31;;;-2.03;100.00
44663;BME280;30381;52.754;18.258;2023-02-04T07:34:59;101938.59;;;-1.95;100.00
44663;BME280;30381;52.754;18.258;2023-02-04T07:37:25;101942.63;;;-1.89;100.00
44663;BME280;30381;52.754;18.258;2023-02-04T07:39:53;101953.09;;;-1.80;100.00
44663;BME280;30381;52.754;18.258;2023-02-04T07:42:19;101954.75;;;-1.75;100.00
44663;BME280;30381;52.754;18.258;2023-02-04T07:44:45;101959.27;;;-1.67;100.00
44663;BME280;30381;52.754;18.258;2023-02-04T07:47:12;101964.81;;;-1.51;100.00
44663;BME280;30381;52.754;18.258;2023-02-04T07:49:41;101971.04;;;-1.34;100.00
44663;BME280;30381;52.754;18.258;2023-02-04T07:52:07;101974.41;;;-1.19;100.00
44663;BME280;30381;52.754;18.258;2023-02-04T07:54:34;101984.10;;;-1.08;100.00
44663;BME280;30381;52.754;18.258;2023-02-04T07:57:01;101984.60;;;-1.04;100.00
44663;BME280;30381;52.754;18.258;2023-02-04T07:59:27;101989.98;;;-1.02;100.00
44663;BME280;30381;52.754;18.258;2023-02-04T08:01:53;101991.86;;;-1.06;100.00
44663;BME280;30381;52.754;18.258;2023-02-04T08:04:21;102001.30;;;-1.10;100.00
44663;BME280;30381;52.754;18.258;2023-02-04T08:06:47;102007.77;;;-1.12;100.00
44663;BME280;30381;52.754;18.258;2023-02-04T08:09:24;102020.30;;;-1.05;100.00
44663;BME280;30381;52.754;18.258;2023-02-04T08:12:16;102026.80;;;-0.94;100.00
44663;BME280;30381;52.754;18.258;2023-02-04T08:14:42;102036.77;;;-0.89;100.00
44663;BME280;30381;52.754;18.258;2023-02-04T08:17:09;102037.61;;;-0.83;100.00
44663;BME280;30381;52.754;18.258;2023-02-04T08:19:35;102038.23;;;-0.78;100.00
44663;BME280;30381;52.754;18.258;2023-02-04T08:22:01;102037.15;;;-0.78;100.00
44663;BME280;30381;52.754;18.258;2023-02-04T08:24:27;102041.23;;;-0.86;100.00
44663;BME280;30381;52.754;18.258;2023-02-04T08:26:53;102044.79;;;-0.97;100.00
44663;BME280;30381;52.754;18.258;2023-02-04T08:29:19;102045.00;;;-1.04;100.00
44663;BME280;30381;52.754;18.258;2023-02-04T08:31:46;102044.88;;;-0.96;100.00
44663;BME280;30381;52.754;18.258;2023-02-04T08:34:12;102051.96;;;-0.94;100.00
44663;BME280;30381;52.754;18.258;2023-02-04T08:36:38;102054.80;;;-0.99;100.00
44663;BME280;30381;52.754;18.258;2023-02-04T08:39:06;102059.05;;;-1.05;100.00
44663;BME280;30381;52.754;18.258;2023-02-04T08:41:32;102061.95;;;-1.14;100.00
44663;BME280;30381;52.754;18.258;2023-02-04T08:43:58;102067.58;;;-1.24;100.00
44663;BME280;30381;52.754;18.258;2023-02-04T08:46:28;102067.08;;;-1.25;100.00
44663;BME280;30381;52.754;18.258;2023-02-04T08:48:54;102071.61;;;-1.07;100.00
44663;BME280;30381;52.754;18.258;2023-02-04T08:51:20;102076.62;;;-0.82;100.00
44663;BME280;30381;52.754;18.258;2023-02-04T08:53:47;102078.20;;;-0.84;100.00
44663;BME280;30381;52.754;18.258;2023-02-04T08:56:14;102082.28;;;-0.80;100.00
44663;BME280;30381;52.754;18.258;2023-02-04T08:58:43;102079.13;;;-0.63;100.00
44663;BME280;30381;52.754;18.258;2023-02-04T09:01:10;102082.05;;;-0.46;100.00
44663;BME280;30381;52.754;18.258;2023-02-04T09:03:37;102085.48;;;-0.36;100.00
44663;BME280;30381;52.754;18.258;2023-02-04T09:06:11;102088.70;;;-0.36;100.00
44663;BME280;30381;52.754;18.258;2023-02-04T09:08:37;102090.57;;;-0.27;100.00
44663;BME280;30381;52.754;18.258;2023-02-04T09:11:03;102089.88;;;-0.05;100.00
44663;BME280;30381;52.754;18.258;2023-02-04T09:13:30;102089.56;;;0.11;100.00
44663;BME280;30381;52.754;18.258;2023-02-04T09:15:57;102096.38;;;0.21;100.00
44663;BME280;30381;52.754;18.258;2023-02-04T09:18:23;102100.80;;;0.25;100.00
44663;BME280;30381;52.754;18.258;2023-02-04T09:20:51;102105.41;;;0.31;100.00
44663;BME280;30381;52.754;18.258;2023-02-04T09:23:21;102105.33;;;0.36;100.00
44663;BME280;30381;52.754;18.258;2023-02-04T09:25:48;102114.23;;;0.37;100.00
44663;BME280;30381;52.754;18.258;2023-02-04T09:28:19;102112.36;;;0.35;100.00
44663;BME280;30381;52.754;18.258;2023-02-04T09:31:36;102121.15;;;0.15;100.00
44663;BME280;30381;52.754;18.258;2023-02-04T09:34:07;102124.64;;;0.08;100.00
44663;BME280;30381;52.754;18.258;2023-02-04T09:36:33;102122.00;;;0.03;100.00
44663;BME280;30381;52.754;18.258;2023-02-04T09:39:09;102127.36;;;0.01;100.00
44663;BME280;30381;52.754;18.258;2023-02-04T09:41:38;102137.08;;;-0.03;100.00
44663;BME280;30381;52.754;18.258;2023-02-04T09:44:42;102137.69;;;-0.06;100.00
44663;BME280;30381;52.754;18.258;2023-02-04T09:47:35;102142.73;;;-0.03;100.00
44663;BME280;30381;52.754;18.258;2023-02-04T09:50:01;102142.32;;;0.02;100.00
44663;BME280;30381;52.754;18.258;2023-02-04T09:52:28;102142.48;;;0.07;100.00
44663;BME280;30381;52.754;18.258;2023-02-04T09:54:54;102149.36;;;0.11;100.00
44663;BME280;30381;52.754;18.258;2023-02-04T09:57:20;102147.11;;;0.17;100.00
44663;BME280;30381;52.754;18.258;2023-02-04T09:59:46;102147.88;;;0.22;100.00
44663;BME280;30381;52.754;18.258;2023-02-04T10:02:24;102147.93;;;0.29;100.00
44663;BME280;30381;52.754;18.258;2023-02-04T11:28:24;102185.70;;;1.30;100.00
44663;BME280;30381;52.754;18.258;2023-02-04T11:31:01;102188.48;;;1.26;100.00
44663;BME280;30381;52.754;18.258;2023-02-04T11:33:39;102191.87;;;1.22;100.00
44663;BME280;30381;52.754;18.258;2023-02-04T11:36:09;102192.68;;;1.23;100.00
44663;BME280;30381;52.754;18.258;2023-02-04T11:38:36;102198.81;;;1.28;100.00
44663;BME280;30381;52.754;18.258;2023-02-04T11:41:04;102202.58;;;1.36;100.00
44663;BME280;30381;52.754;18.258;2023-02-04T11:43:34;102206.64;;;1.40;100.00
44663;BME280;30381;52.754;18.258;2023-02-04T11:46:12;102206.63;;;1.46;100.00
44663;BME280;30381;52.754;18.258;2023-02-04T11:48:40;102210.13;;;1.64;100.00
44663;BME280;30381;52.754;18.258;2023-02-04T11:51:17;102205.95;;;1.84;100.00
44663;BME280;30381;52.754;18.258;2023-02-04T11:53:50;102211.54;;;1.95;100.00
44663;BME280;30381;52.754;18.258;2023-02-04T11:56:18;102217.05;;;1.82;100.00
44663;BME280;30381;52.754;18.258;2023-02-04T11:58:46;102220.96;;;1.70;100.00
44663;BME280;30381;52.754;18.258;2023-02-04T12:01:28;102221.69;;;1.58;100.00
44663;BME280;30381;52.754;18.258;2023-02-04T12:03:57;102221.19;;;1.64;100.00
44663;BME280;30381;52.754;18.258;2023-02-04T12:06:26;102222.02;;;1.78;100.00
44663;BME280;30381;52.754;18.258;2023-02-04T12:09:05;102226.88;;;1.87;100.00
44663;BME280;30381;52.754;18.258;2023-02-04T12:11:32;102226.56;;;1.86;100.00
44663;BME280;30381;52.754;18.258;2023-02-04T12:14:09;102233.90;;;1.82;100.00
44663;BME280;30381;52.754;18.258;2023-02-04T12:22:18;102237.06;;;1.84;100.00
44663;BME280;30381;52.754;18.258;2023-02-04T12:30:14;102235.10;;;1.77;100.00
44663;BME280;30381;52.754;18.258;2023-02-04T12:32:40;102237.98;;;1.68;100.00
44663;BME280;30381;52.754;18.258;2023-02-04T12:35:07;102241.64;;;1.59;100.00
44663;BME280;30381;52.754;18.258;2023-02-04T12:37:33;102247.15;;;1.67;100.00
44663;BME280;30381;52.754;18.258;2023-02-04T12:40:02;102241.80;;;1.79;100.00
44663;BME280;30381;52.754;18.258;2023-02-04T12:42:28;102247.71;;;1.86;100.00
44663;BME280;30381;52.754;18.258;2023-02-04T12:44:55;102250.68;;;1.85;100.00
44663;BME280;30381;52.754;18.258;2023-02-04T14:30:44;102366.75;;;0.79;100.00
44663;BME280;30381;52.754;18.258;2023-02-04T14:34:16;102361.75;;;0.20;100.00
44663;BME280;30381;52.754;18.258;2023-02-04T14:40:21;102359.38;;;-0.46;100.00
44663;BME280;30381;52.754;18.258;2023-02-04T14:43:04;102360.42;;;-0.53;100.00
44663;BME280;30381;52.754;18.258;2023-02-04T14:45:41;102361.94;;;-0.51;100.00
44663;BME280;30381;52.754;18.258;2023-02-04T14:48:42;102358.57;;;-0.52;100.00
44663;BME280;30381;52.754;18.258;2023-02-04T14:51:30;102363.17;;;-0.54;100.00
44663;BME280;30381;52.754;18.258;2023-02-04T14:53:58;102363.61;;;-0.55;100.00
44663;BME280;30381;52.754;18.258;2023-02-04T14:56:49;102365.26;;;-0.58;100.00
44663;BME280;30381;52.754;18.258;2023-02-04T14:59:32;102364.35;;;-0.62;100.00
44663;BME280;30381;52.754;18.258;2023-02-04T15:02:32;102368.62;;;-0.67;100.00
44663;BME280;30381;52.754;18.258;2023-02-04T15:05:05;102369.08;;;-0.72;100.00
44663;BME280;30381;52.754;18.258;2023-02-04T15:07:52;102375.02;;;-0.76;100.00
44663;BME280;30381;52.754;18.258;2023-02-04T15:10:41;102384.54;;;-0.82;100.00
44663;BME280;30381;52.754;18.258;2023-02-04T15:14:05;102382.35;;;-0.88;100.00
44663;BME280;30381;52.754;18.258;2023-02-04T15:20:15;102387.36;;;-1.02;100.00
44663;BME280;30381;52.754;18.258;2023-02-04T15:27:39;102407.45;;;-1.15;100.00
44663;BME280;30381;52.754;18.258;2023-02-04T15:31:12;102420.32;;;-1.19;100.00
44663;BME280;30381;52.754;18.258;2023-02-04T15:36:43;102432.70;;;-1.28;100.00
44663;BME280;30381;52.754;18.258;2023-02-04T16:08:37;102459.50;;;-1.91;100.00
44663;BME280;30381;52.754;18.258;2023-02-04T16:28:14;102487.43;;;-1.89;100.00
44663;BME280;30381;52.754;18.258;2023-02-04T16:31:01;102491.61;;;-1.88;100.00
44663;BME280;30381;52.754;18.258;2023-02-04T16:33:36;102487.88;;;-1.88;100.00
44663;BME280;30381;52.754;18.258;2023-02-04T16:36:14;102494.60;;;-1.88;100.00
44663;BME280;30381;52.754;18.258;2023-02-04T16:39:01;102496.67;;;-1.92;100.00
44663;BME280;30381;52.754;18.258;2023-02-04T16:41:46;102495.34;;;-1.98;100.00
44663;BME280;30381;52.754;18.258;2023-02-04T16:44:32;102493.67;;;-2.06;100.00
44663;BME280;30381;52.754;18.258;2023-02-04T16:47:10;102500.55;;;-2.14;100.00
44663;BME280;30381;52.754;18.258;2023-02-04T16:50:02;102503.14;;;-2.21;100.00
44663;BME280;30381;52.754;18.258;2023-02-04T16:52:59;102507.44;;;-2.26;100.00
44663;BME280;30381;52.754;18.258;2023-02-04T16:55:32;102510.05;;;-2.31;100.00
44663;BME280;30381;52.754;18.258;2023-02-04T16:58:14;102510.45;;;-2.36;100.00
44663;BME280;30381;52.754;18.258;2023-02-04T18:40:26;102543.09;;;-3.00;100.00
44663;BME280;30381;52.754;18.258;2023-02-04T18:56:37;102544.16;;;-2.85;100.00
44663;BME280;30381;52.754;18.258;2023-02-04T18:59:34;102537.02;;;-2.81;100.00
44663;BME280;30381;52.754;18.258;2023-02-04T19:06:44;102538.27;;;-2.73;100.00
44663;BME280;30381;52.754;18.258;2023-02-04T19:10:43;102532.09;;;-2.71;100.00